createdAt,value
2022-11-18T00:00:29.522Z,81.49
2022-11-18T00:03:32.128Z,80.60
2022-11-18T00:06:34.710Z,80.60
2022-11-18T00:09:38.679Z,80.81
2022-11-18T00:13:13.582Z,80.05
2022-11-18T00:16:16.117Z,80.14
2022-11-18T00:19:19.475Z,79.46
2022-11-18T00:22:28.448Z,80.08
2022-11-18T00:25:34.860Z,80.56
2022-11-18T00:28:37.831Z,79.82
2022-11-18T00:31:40.807Z,80.51
2022-11-18T00:34:43.694Z,80.05
2022-11-18T00:37:46.341Z,79.57
2022-11-18T00:40:50.296Z,79.81
2022-11-18T00:43:52.025Z,80.53
2022-11-18T00:46:55.324Z,80.51
2022-11-18T00:49:58.009Z,80.41
2022-11-18T00:53:00.555Z,81.17
2022-11-18T00:56:04.873Z,81.83
2022-11-18T00:59:07.742Z,82.17
2022-11-18T01:02:10.451Z,82.51
2022-11-18T01:05:13.139Z,82.04
2022-11-18T01:08:16.122Z,83.09
2022-11-18T01:11:37.513Z,83.17
2022-11-18T01:14:40.194Z,83.91
2022-11-18T01:17:42.893Z,83.63
2022-11-18T01:20:46.143Z,83.87
2022-11-18T01:23:49.186Z,84.41
2022-11-18T01:26:53.207Z,84.83
2022-11-18T01:29:55.920Z,84.84
2022-11-18T01:32:59.152Z,84.46
2022-11-18T01:36:02.241Z,84.58
2022-11-18T01:39:05.231Z,84.66
2022-11-18T01:42:13.671Z,85.34
2022-11-18T01:45:25.708Z,85.45
2022-11-18T01:48:31.241Z,85.14
2022-11-18T01:51:36.702Z,85.01
2022-11-18T01:54:42.144Z,85.28
2022-11-18T01:57:48.975Z,85.53
2022-11-18T02:00:51.739Z,85.78
2022-11-18T02:03:55.049Z,85.81
2022-11-18T02:06:57.823Z,86.03
2022-11-18T02:10:03.843Z,85.78
2022-11-18T02:13:08.276Z,86.19
2022-11-18T02:16:16.587Z,86.19
2022-11-18T02:19:33.878Z,86.24
2022-11-18T02:22:47.293Z,86.71
2022-11-18T02:26:04.452Z,85.79
2022-11-18T02:29:10.405Z,85.96
2022-11-18T02:32:16.701Z,86.25
2022-11-18T02:35:21.969Z,86.62
2022-11-18T02:38:27.747Z,87.10
2022-11-18T02:41:33.280Z,88.06
2022-11-18T02:44:39.176Z,88.21
2022-11-18T02:47:43.659Z,89.23
2022-11-18T02:50:47.076Z,90.25
2022-11-18T02:53:50.435Z,90.28
2022-11-18T02:56:53.781Z,90.99
2022-11-18T02:59:57.932Z,91.00
2022-11-18T03:03:00.517Z,91.72
2022-11-18T03:06:10.606Z,91.45
2022-11-18T03:09:16.211Z,91.27
2022-11-18T03:12:25.320Z,91.32
2022-11-18T03:15:35.857Z,91.15
2022-11-18T03:18:43.400Z,91.59
2022-11-18T03:21:49.143Z,90.48
2022-11-18T03:24:57.069Z,91.31
2022-11-18T03:28:04.481Z,90.61
2022-11-18T03:31:11.626Z,91.05
2022-11-18T03:34:20.398Z,90.92
2022-11-18T03:37:24.363Z,91.19
2022-11-18T03:40:29.349Z,90.79
2022-11-18T03:43:35.883Z,91.07
2022-11-18T03:46:42.088Z,90.92
2022-11-18T03:49:47.715Z,90.70
2022-11-18T03:52:51.326Z,91.03
2022-11-18T03:55:57.975Z,90.88
2022-11-18T03:59:06.207Z,90.77
2022-11-18T04:02:13.526Z,91.06
2022-11-18T04:05:17.522Z,90.74
2022-11-18T04:08:23.817Z,90.72
2022-11-18T04:11:48.658Z,89.60
2022-11-18T04:14:55.366Z,88.85
2022-11-18T04:17:59.558Z,88.63
2022-11-18T04:21:02.203Z,88.49
2022-11-18T04:24:05.199Z,88.46
2022-11-18T04:27:08.573Z,88.36
2022-11-18T04:30:12.425Z,87.28
2022-11-18T04:33:16.473Z,87.88
2022-11-18T04:36:19.910Z,89.05
2022-11-18T04:39:22.693Z,90.01
2022-11-18T04:42:25.463Z,90.18
2022-11-18T04:45:28.152Z,90.15
2022-11-18T04:48:32.336Z,89.82
2022-11-18T04:51:34.977Z,90.00
2022-11-18T04:54:37.653Z,89.78
2022-11-18T04:57:40.268Z,89.87
2022-11-18T05:00:42.814Z,90.30
2022-11-18T05:03:50.539Z,90.37
2022-11-18T05:06:53.972Z,89.93
2022-11-18T05:09:56.600Z,90.10
2022-11-18T05:12:58.195Z,89.93
2022-11-18T05:16:02.345Z,89.68
2022-11-18T05:19:07.112Z,89.34
2022-11-18T05:22:09.741Z,89.54
2022-11-18T05:25:12.389Z,89.61
2022-11-18T05:28:15.244Z,88.23
2022-11-18T05:31:18.347Z,88.11
2022-11-18T05:34:22.563Z,87.62
2022-11-18T05:37:25.439Z,87.41
2022-11-18T05:40:29.076Z,87.63
2022-11-18T05:43:31.539Z,87.94
2022-11-18T05:46:34.978Z,87.93
2022-11-18T05:49:38.989Z,87.30
2022-11-18T05:52:41.714Z,87.59
2022-11-18T05:55:49.233Z,86.99
2022-11-18T05:58:52.077Z,88.30
2022-11-18T06:01:58.272Z,87.45
2022-11-18T06:08:33.885Z,87.60
2022-11-18T06:11:43.050Z,87.34
2022-11-18T06:14:46.966Z,88.21
2022-11-18T06:17:51.703Z,88.11
2022-11-18T06:20:57.915Z,87.93
2022-11-18T06:24:00.667Z,87.99
2022-11-18T06:27:04.039Z,88.37
2022-11-18T06:30:08.273Z,88.16
2022-11-18T06:33:10.876Z,88.33
2022-11-18T06:36:14.807Z,88.55
2022-11-18T06:39:17.623Z,87.79
2022-11-18T06:42:34.342Z,88.50
2022-11-18T06:45:37.048Z,87.95
2022-11-18T06:48:39.753Z,88.06
2022-11-18T06:51:43.842Z,87.93
2022-11-18T06:54:46.633Z,87.71
2022-11-18T06:57:49.266Z,87.42
2022-11-18T07:00:51.885Z,86.47
2022-11-18T07:03:55.034Z,86.75
2022-11-18T07:06:59.037Z,86.23
2022-11-18T07:10:01.814Z,85.83
2022-11-18T07:13:04.748Z,85.82
2022-11-18T07:16:08.842Z,85.60
2022-11-18T07:19:12.994Z,85.16
2022-11-18T07:22:17.292Z,83.77
2022-11-18T07:25:20.395Z,82.72
2022-11-18T07:28:23.256Z,83.25
2022-11-18T07:31:25.836Z,83.98
2022-11-18T07:34:28.380Z,84.63
2022-11-18T07:37:32.361Z,84.03
2022-11-18T07:40:35.157Z,84.51
2022-11-18T07:43:38.390Z,84.25
2022-11-18T07:46:41.113Z,84.45
2022-11-18T07:49:43.840Z,83.90
2022-11-18T07:52:47.744Z,83.32
2022-11-18T07:55:50.352Z,82.56
2022-11-18T07:58:53.760Z,82.11
2022-11-18T08:01:57.555Z,82.40
2022-11-18T08:05:00.395Z,82.18
2022-11-18T08:08:04.746Z,81.74
2022-11-18T08:11:08.654Z,81.07
2022-11-18T08:14:11.260Z,81.52
2022-11-18T08:17:13.926Z,81.56
2022-11-18T08:20:17.185Z,80.85
2022-11-18T08:23:21.219Z,80.67
2022-11-18T08:26:24.925Z,81.72
2022-11-18T08:29:28.758Z,81.43
2022-11-18T08:32:31.986Z,82.44
2022-11-18T08:35:35.475Z,82.14
2022-11-18T08:38:39.441Z,82.60
2022-11-18T08:41:43.737Z,81.75
2022-11-18T08:44:46.902Z,81.42
2022-11-18T08:47:49.487Z,82.06
2022-11-18T08:50:52.776Z,81.94
2022-11-18T08:53:57.061Z,82.49
2022-11-18T08:56:59.649Z,82.50
2022-11-18T09:00:02.236Z,81.75
2022-11-18T09:03:04.845Z,82.04
2022-11-18T09:06:09.140Z,81.60
2022-11-18T09:09:13.124Z,80.51
2022-11-18T09:12:17.524Z,82.38
2022-11-18T09:15:20.622Z,81.53
2022-11-18T09:18:23.534Z,82.57
2022-11-18T09:21:26.630Z,82.59
2022-11-18T09:24:30.726Z,81.94
2022-11-18T09:27:33.391Z,81.91
2022-11-18T09:30:36.003Z,82.72
2022-11-18T09:33:38.953Z,83.51
2022-11-18T09:36:41.653Z,81.90
2022-11-18T09:39:45.604Z,82.65
2022-11-18T09:42:57.716Z,82.20
2022-11-18T09:46:05.396Z,83.10
2022-11-18T09:49:14.861Z,83.33
2022-11-18T09:52:21.060Z,84.09
2022-11-18T09:55:25.089Z,84.57
2022-11-18T09:58:32.983Z,84.64
2022-11-18T10:01:37.750Z,84.45
2022-11-18T10:04:40.713Z,83.88
2022-11-18T10:07:48.155Z,83.00
2022-11-18T10:10:57.684Z,82.85
2022-11-18T10:14:07.975Z,82.55
2022-11-18T10:17:23.215Z,81.74
2022-11-18T10:20:33.359Z,81.89
2022-11-18T10:23:43.630Z,81.34
2022-11-18T10:26:47.824Z,81.50
2022-11-18T10:29:54.133Z,81.40
2022-11-18T10:32:59.020Z,81.56
2022-11-18T10:36:26.275Z,80.01
2022-11-18T10:39:29.050Z,80.37
2022-11-18T10:42:37.071Z,80.14
2022-11-18T10:45:39.722Z,79.51
2022-11-18T10:48:42.349Z,77.72
2022-11-18T10:51:46.412Z,77.67
2022-11-18T10:55:07.575Z,77.35
2022-11-18T10:58:16.163Z,79.43
2022-11-18T11:01:21.848Z,80.61
2022-11-18T11:04:27.231Z,78.92
2022-11-18T11:07:32.766Z,79.17
2022-11-18T11:10:35.651Z,81.01
2022-11-18T11:13:41.962Z,81.93
2022-11-18T11:16:49.850Z,82.66
2022-11-18T11:19:54.215Z,84.00
2022-11-18T11:22:57.196Z,86.12
2022-11-18T11:29:38.444Z,84.42
2022-11-18T11:33:06.173Z,82.50
2022-11-18T11:36:25.889Z,79.74
2022-11-18T11:39:47.998Z,76.49
2022-11-18T11:42:59.626Z,73.36
2022-11-18T11:46:24.276Z,73.13
2022-11-18T11:49:45.348Z,72.71
2022-11-18T11:52:58.742Z,72.37
2022-11-18T11:56:07.308Z,71.26
2022-11-18T11:59:19.784Z,69.73
2022-11-18T12:02:48.685Z,70.59
2022-11-18T12:05:52.404Z,69.31
2022-11-18T12:08:58.444Z,68.42
2022-11-18T12:12:28.927Z,70.37
2022-11-18T12:15:42.332Z,70.74
2022-11-18T12:18:49.938Z,70.16
2022-11-18T12:22:03.928Z,72.39
2022-11-18T12:25:17.187Z,72.12
2022-11-18T12:28:25.175Z,72.18
2022-11-18T12:31:35.361Z,72.44
2022-11-18T12:34:42.442Z,72.34
2022-11-18T12:37:48.544Z,74.61
2022-11-18T12:40:53.157Z,77.84
2022-11-18T12:44:09.995Z,79.12
2022-11-18T12:47:13.500Z,78.64
2022-11-18T12:50:18.186Z,79.43
2022-11-18T12:53:34.352Z,78.61
2022-11-18T12:56:38.252Z,78.39
2022-11-18T12:59:40.961Z,78.33
2022-11-18T13:02:52.143Z,79.37
2022-11-18T13:06:14.411Z,70.66
2022-11-18T13:09:18.712Z,71.25
2022-11-18T13:12:21.517Z,70.91
2022-11-18T13:15:42.129Z,70.27
2022-11-18T13:18:51.903Z,69.88
2022-11-18T13:22:14.497Z,69.07
2022-11-18T13:25:25.108Z,50.01
2022-11-18T13:28:34.129Z,41.77
2022-11-18T13:31:40.248Z,39.59
2022-11-18T13:34:47.736Z,51.98
2022-11-18T13:37:54.672Z,62.05
2022-11-18T13:41:08.164Z,64.76
2022-11-18T13:44:13.138Z,55.92
2022-11-18T13:47:24.309Z,41.44
2022-11-18T13:50:31.740Z,35.78
2022-11-18T13:53:37.212Z,36.47
2022-11-18T13:56:40.304Z,41.11
2022-11-18T13:59:43.295Z,43.39
2022-11-18T14:02:54.358Z,40.15
2022-11-18T14:05:58.427Z,39.90
2022-11-18T14:09:18.004Z,36.65
2022-11-18T14:12:24.519Z,36.08
2022-11-18T14:15:40.491Z,36.69
2022-11-18T14:18:48.459Z,35.38
2022-11-18T14:21:51.137Z,42.66
2022-11-18T14:24:59.149Z,54.27
2022-11-18T14:28:13.245Z,59.58
2022-11-18T14:31:24.636Z,61.11
2022-11-18T14:34:28.040Z,59.98
2022-11-18T14:37:31.358Z,60.86
2022-11-18T14:40:35.308Z,62.19
2022-11-18T14:43:38.378Z,63.77
2022-11-18T14:46:42.831Z,64.02
2022-11-18T14:49:45.508Z,65.28
2022-11-18T14:52:48.108Z,66.11
2022-11-18T14:55:53.282Z,67.02
2022-11-18T14:58:55.982Z,67.01
2022-11-18T15:01:59.421Z,67.52
2022-11-18T15:05:02.151Z,65.95
2022-11-18T15:08:05.140Z,66.41
2022-11-18T15:11:09.284Z,67.26
2022-11-18T15:14:11.938Z,66.67
2022-11-18T15:17:14.841Z,66.59
2022-11-18T15:20:20.375Z,66.16
2022-11-18T15:23:25.753Z,65.91
2022-11-18T15:26:37.253Z,65.78
2022-11-18T15:29:39.853Z,66.72
2022-11-18T15:32:43.169Z,66.79
2022-11-18T15:35:45.810Z,66.81
2022-11-18T15:38:49.597Z,67.14
2022-11-18T15:41:53.887Z,67.88
2022-11-18T15:44:56.610Z,68.43
2022-11-18T15:47:59.327Z,67.82
2022-11-18T15:51:01.920Z,68.79
2022-11-18T15:54:04.773Z,69.47
2022-11-18T15:57:08.738Z,70.20
2022-11-18T16:00:12.477Z,70.05
2022-11-18T16:03:15.789Z,70.73
2022-11-18T16:06:18.670Z,70.72
2022-11-18T16:09:21.804Z,69.94
2022-11-18T16:12:43.990Z,71.03
2022-11-18T16:15:48.519Z,71.20
2022-11-18T16:18:54.948Z,71.85
2022-11-18T16:21:57.895Z,71.86
2022-11-18T16:25:00.620Z,71.88
2022-11-18T16:28:08.137Z,71.78
2022-11-18T16:31:28.531Z,72.19
2022-11-18T16:34:31.240Z,72.36
2022-11-18T16:37:33.927Z,73.09
2022-11-18T16:40:36.637Z,73.82
2022-11-18T16:43:40.747Z,71.68
2022-11-18T16:46:47.323Z,71.88
2022-11-18T16:49:50.100Z,72.06
2022-11-18T16:52:52.678Z,71.92
2022-11-18T16:55:56.828Z,71.81
2022-11-18T16:59:02.888Z,72.28
2022-11-18T17:02:06.528Z,72.74
2022-11-18T17:05:09.966Z,73.51
2022-11-18T17:08:12.749Z,73.17
2022-11-18T17:11:15.551Z,72.58
2022-11-18T17:14:21.783Z,72.70
2022-11-18T17:17:24.675Z,73.40
2022-11-18T17:20:27.265Z,72.88
2022-11-18T17:23:29.957Z,71.84
2022-11-18T17:26:32.522Z,72.60
2022-11-18T17:29:36.657Z,72.48
2022-11-18T17:32:39.347Z,72.10
2022-11-18T17:35:41.930Z,73.08
2022-11-18T17:38:46.828Z,73.72
2022-11-18T17:42:07.743Z,74.66
2022-11-18T17:45:12.697Z,75.16
2022-11-18T17:48:15.261Z,74.96
2022-11-18T17:51:17.863Z,74.24
2022-11-18T17:54:21.129Z,72.94
2022-11-18T17:57:26.638Z,72.54
2022-11-18T18:00:31.948Z,72.43
2022-11-18T18:03:34.716Z,72.77
2022-11-18T18:06:37.409Z,72.18
2022-11-18T18:09:40.252Z,72.56
2022-11-18T18:13:00.722Z,73.03
2022-11-18T18:16:04.931Z,72.79
2022-11-18T18:19:08.352Z,72.64
2022-11-18T18:22:11.042Z,72.92
2022-11-18T18:25:14.200Z,72.64
2022-11-18T18:28:16.871Z,72.22
2022-11-18T18:31:20.909Z,72.01
2022-11-18T18:34:23.522Z,72.64
2022-11-18T18:37:26.449Z,73.22
2022-11-18T18:40:29.104Z,73.79
2022-11-18T18:43:31.873Z,73.05
2022-11-18T18:46:37.803Z,74.02
2022-11-18T18:49:40.451Z,74.29
2022-11-18T18:52:43.214Z,74.60
2022-11-18T18:55:45.905Z,75.22
2022-11-18T18:58:48.803Z,75.36
2022-11-18T19:01:52.856Z,75.98
2022-11-18T19:04:55.646Z,76.62
2022-11-18T19:07:58.388Z,77.17
2022-11-18T19:11:05.874Z,76.80
2022-11-18T19:14:12.799Z,76.80
2022-11-18T19:17:17.464Z,75.91
2022-11-18T19:20:37.375Z,74.63
2022-11-18T19:23:41.174Z,73.33
2022-11-18T19:26:43.936Z,72.14
2022-11-18T19:29:46.592Z,72.83
2022-11-18T19:32:51.114Z,72.65
2022-11-18T19:35:56.620Z,73.11
2022-11-18T19:39:00.476Z,72.06
2022-11-18T19:42:03.152Z,70.84
2022-11-18T19:45:07.428Z,71.35
2022-11-18T19:48:11.613Z,73.18
2022-11-18T19:51:15.684Z,72.89
2022-11-18T19:54:18.758Z,72.46
2022-11-18T19:57:22.094Z,71.70
2022-11-18T20:00:24.823Z,71.97
2022-11-18T20:03:30.692Z,71.82
2022-11-18T20:06:35.466Z,71.35
2022-11-18T20:09:38.180Z,71.33
2022-11-18T20:12:40.896Z,71.85
2022-11-18T20:15:44.145Z,72.85
2022-11-18T20:18:49.280Z,73.60
2022-11-18T20:21:52.503Z,73.98
2022-11-18T20:24:55.183Z,74.12
2022-11-18T20:27:58.484Z,74.38
2022-11-18T20:31:02.265Z,75.02
2022-11-18T20:34:06.492Z,75.38
2022-11-18T20:37:09.667Z,74.15
2022-11-18T20:40:13.106Z,72.99
2022-11-18T20:43:15.726Z,72.97
2022-11-18T20:46:20.927Z,71.87
2022-11-18T20:49:25.213Z,71.03
2022-11-18T20:52:27.795Z,71.25
2022-11-18T20:55:30.485Z,71.09
2022-11-18T20:58:33.925Z,71.00
2022-11-18T21:01:36.645Z,71.71
2022-11-18T21:04:40.711Z,71.81
2022-11-18T21:07:43.270Z,72.65
2022-11-18T21:10:45.909Z,72.41
2022-11-18T21:14:05.979Z,72.99
2022-11-18T21:17:08.720Z,73.42
2022-11-18T21:20:26.903Z,73.46
2022-11-18T21:23:29.492Z,72.88
2022-11-18T21:26:33.679Z,72.51
2022-11-18T21:29:36.290Z,72.91
2022-11-18T21:32:38.990Z,72.52
2022-11-18T21:35:43.124Z,72.93
2022-11-18T21:38:45.832Z,72.84
2022-11-18T21:41:53.852Z,72.97
2022-11-18T21:44:58.863Z,72.49
2022-11-18T21:48:01.525Z,73.16
2022-11-18T21:51:07.253Z,73.03
2022-11-18T21:54:11.690Z,73.35
2022-11-18T21:57:14.307Z,74.15
2022-11-18T22:00:18.012Z,75.41
2022-11-18T22:03:20.468Z,76.31
2022-11-18T22:06:25.280Z,76.99
2022-11-18T22:09:32.910Z,77.29
2022-11-18T22:12:38.651Z,77.62
2022-11-18T22:15:41.297Z,77.23
2022-11-18T22:18:45.017Z,76.41
2022-11-18T22:21:48.857Z,76.88
2022-11-18T22:24:51.433Z,77.80
2022-11-18T22:27:55.285Z,79.60
2022-11-18T22:31:02.740Z,80.55
2022-11-18T22:34:05.428Z,81.48
2022-11-18T22:37:09.473Z,81.97
2022-11-18T22:40:13.380Z,83.12
2022-11-18T22:43:15.974Z,83.20
2022-11-18T22:46:20.099Z,82.96
2022-11-18T22:49:22.738Z,82.33
2022-11-18T22:52:26.660Z,83.41
2022-11-18T22:55:29.227Z,83.30
2022-11-18T22:58:31.911Z,83.41
2022-11-18T23:01:34.633Z,82.80
2022-11-18T23:04:37.258Z,83.15
2022-11-18T23:07:41.274Z,83.75
2022-11-18T23:10:44.004Z,83.83
2022-11-18T23:14:03.760Z,84.63
2022-11-18T23:17:06.661Z,83.80
2022-11-18T23:20:10.584Z,83.64
2022-11-18T23:23:14.555Z,83.28
2022-11-18T23:26:17.625Z,82.74
2022-11-18T23:29:20.513Z,81.90
2022-11-18T23:32:23.461Z,81.82
2022-11-18T23:35:26.140Z,82.59
2022-11-18T23:38:30.597Z,82.78
2022-11-18T23:41:33.211Z,83.40
2022-11-18T23:44:52.411Z,83.28
2022-11-18T23:47:55.028Z,84.17
2022-11-18T23:50:59.248Z,84.60
2022-11-18T23:54:03.215Z,85.85
2022-11-18T23:57:05.886Z,85.43
